WetterOnline ( http://www.wetteronline.de )

Wetter aktuell Braunschweig

Aktuelles Wetter: Braunschweig/Flughafen (88m)

6-stündlich | Neueste Meldungen
Ortszeit Temperatur Wetter
Sa, 21.04. 14:00 19.3° C wolkenlos
Sa, 21.04. 8:00 13.0° C wolkig
Sa, 21.04. 2:00 15.0° C wolkig
Fr, 20.04. 20:00 23.6° C wolkig
Fr, 20.04. 14:00 26.9° C leicht bewölkt
Fr, 20.04. 8:00 14.4° C leicht bewölkt
Fr, 20.04. 2:00 15.2° C wolkenlos
Do, 19.04. 20:00 22.0° C leicht bewölkt
Ortszeit Temperatur Wetter
Sa, 21.04. 19:00 19.7° C leicht bewölkt
Sa, 21.04. 18:50 19.7° C leicht bewölkt
Sa, 21.04. 18:40 19.6° C leicht bewölkt
Sa, 21.04. 18:30 20.2° C leicht bewölkt
Sa, 21.04. 18:20 20.2° C leicht bewölkt
Sa, 21.04. 18:10 20.3° C leicht bewölkt
Sa, 21.04. 18:00 20.8° C fast wolkenlos
Sa, 21.04. 17:30 20.8° C fast wolkenlos
Sa, 21.04. 17:00 20.8° C wolkenlos
Sa, 21.04. 16:30 20.7° C wolkenlos
Sa, 21.04. 16:00 20.6° C wolkenlos
Ortszeit Relative Feuchte Sichtweite
Sa, 21.04. 14:00 42% 20 km
Sa, 21.04. 8:00 80% 4.5 km
Sa, 21.04. 2:00 77% 12 km
Fr, 20.04. 20:00 43% 30 km
Fr, 20.04. 14:00 34% 26 km
Fr, 20.04. 8:00 75% 6 km
Fr, 20.04. 2:00 74% 8 km
Do, 19.04. 20:00 43% 23 km
Ortszeit Relative Feuchte Sichtweite
Sa, 21.04. 19:00 43% 70 km
Sa, 21.04. 18:50 43% -
Sa, 21.04. 18:40 45% -
Sa, 21.04. 18:30 40% 50 km
Sa, 21.04. 18:20 40% -
Sa, 21.04. 18:10 40% -
Sa, 21.04. 18:00 37% 55 km
Sa, 21.04. 17:30 41% 60 km
Sa, 21.04. 17:00 39% 35 km
Sa, 21.04. 16:30 41% 30 km
Sa, 21.04. 16:00 42% 30 km
Ortszeit Niederschlagsmenge Niederschlagsart
Sa, 21.04. 14:00 0.0 l/m2 in 6 Std. -
Sa, 21.04. 8:00 0.0 l/m2 in 12 Std. -
Sa, 21.04. 2:00 0.0 l/m2 in 6 Std. -
Fr, 20.04. 20:00 0.0 l/m2 in 12 Std. -
Fr, 20.04. 14:00 0.0 l/m2 in 6 Std. -
Fr, 20.04. 8:00 0.0 l/m2 in 12 Std. -
Fr, 20.04. 2:00 0.0 l/m2 in 6 Std. -
Do, 19.04. 20:00 0.0 l/m2 in 12 Std. -
Ortszeit Niederschlagsmenge Niederschlagsart
Sa, 21.04. 19:00 0.0 l/m2 in 1 Std. -
Sa, 21.04. 18:50 keine Meldung -
Sa, 21.04. 18:40 keine Meldung -
Sa, 21.04. 18:30 0.0 l/m2 in 1 Std. -
Sa, 21.04. 18:20 keine Meldung -
Sa, 21.04. 18:10 keine Meldung -
Sa, 21.04. 18:00 0.0 l/m2 in 1 Std. -
Sa, 21.04. 17:30 0.0 l/m2 in 1 Std. -
Sa, 21.04. 17:00 0.0 l/m2 in 1 Std. -
Sa, 21.04. 16:30 0.0 l/m2 in 1 Std. -
Sa, 21.04. 16:00 0.0 l/m2 in 1 Std. -
Ortszeit Stärke Spitze Richtung
km/h Bft. km/h Grad Sektor
Sa, 21.04. 14:00 14 3 22 320° NW
Sa, 21.04. 8:00 9 2 13 300° NW
Sa, 21.04. 2:00 4 1 14 250° W
Fr, 20.04. 20:00 6 1 26 270° W
Fr, 20.04. 14:00 14 3 25 260° W
Fr, 20.04. 8:00 11 2 17 160° S
Fr, 20.04. 2:00 7 2 13 150° SO
Do, 19.04. 20:00 9 2 30 140° SO
Ortszeit Stärke Spitze Richtung
km/h Bft. km/h Grad Sektor
Sa, 21.04. 19:00 9 2 19 330° NW
Sa, 21.04. 18:50 9 2 - 330° NW
Sa, 21.04. 18:40 11 2 - 340° N
Sa, 21.04. 18:30 11 2 19 320° NW
Sa, 21.04. 18:20 11 2 - 320° NW
Sa, 21.04. 18:10 11 2 - 330° NW
Sa, 21.04. 18:00 11 2 22 310° NW
Sa, 21.04. 17:30 13 3 20 330° NW
Sa, 21.04. 17:00 13 3 24 320° NW
Sa, 21.04. 16:30 11 2 25 340° N
Sa, 21.04. 16:00 11 2 18 350° N
Ortszeit Untergrenze Bedeckung Gattung
total tief tief mittel hoch
Sa, 21.04. 14:00 9000 m 0/8 0/8 - - -
Sa, 21.04. 8:00 10500 m 8/8 0/8 - - -
Sa, 21.04. 2:00 3600 m 4/8 - - - -
Fr, 20.04. 20:00 2700 m 8/8 1/8 - - -
Fr, 20.04. 14:00 2700 m 2/8 2/8 - - -
Fr, 20.04. 8:00 10500 m 8/8 0/8 - - -
Fr, 20.04. 2:00 10500 m 0/8 0/8 - - -
Do, 19.04. 20:00 9000 m 8/8 0/8 - - -
Ortszeit Bedeckungsgrad in Achtel und Wolkenuntergrenze
Sa, 21.04. 19:00 1(3300m) 6(10500m)
Sa, 21.04. 18:50 1(3300m) 6(10500m)
Sa, 21.04. 18:40 1(3300m) 4(12000m)
Sa, 21.04. 18:30 1(3000m) 2(12000m)
Sa, 21.04. 18:20 1(3000m) 2(12000m)
Sa, 21.04. 18:10 1(3300m) 2(12000m)
Sa, 21.04. 18:00 1(10500m) 4(10500m)
Sa, 21.04. 17:30 1(10500m)
Sa, 21.04. 17:00 keine Wolken
Sa, 21.04. 16:30 keine Wolken
Sa, 21.04. 16:00 keine Wolken
Ortszeit Luftdruck NN (hPa) Tendenz (hPa in 3 Std.)
Sa, 21.04. 14:00 1022 - 0,4
Sa, 21.04. 8:00 1021 + 1,2
Sa, 21.04. 2:00 1020 + 0,5
Fr, 20.04. 20:00 1019 - 1,4
Fr, 20.04. 14:00 1023 - 0,9
Fr, 20.04. 8:00 1025 - 0,6
Fr, 20.04. 2:00 1027 - 1,3
Do, 19.04. 20:00 1028 - 0,8
Ortszeit Luftdruck NN (hPa) Tendenz (hPa in 3 Std.)
Sa, 21.04. 19:00 1020 - 1,1
Sa, 21.04. 18:50 1020 keine Meldung
Sa, 21.04. 18:40 1020 keine Meldung
Sa, 21.04. 18:30 1020 - 1,3
Sa, 21.04. 18:20 1020 keine Meldung
Sa, 21.04. 18:10 1020 keine Meldung
Sa, 21.04. 18:00 1020 - 1,5
Sa, 21.04. 17:30 1020 - 1,4
Sa, 21.04. 17:00 1020 - 1,6
Sa, 21.04. 16:30 1020 - 1,4
Sa, 21.04. 16:00 1021 - 1,2
Ortszeit Schneehöhe (cm)
Sa, 21.04. 14:00 -
Sa, 21.04. 8:00 -
Sa, 21.04. 2:00 -
Fr, 20.04. 20:00 -
Fr, 20.04. 14:00 -
Fr, 20.04. 8:00 -
Fr, 20.04. 2:00 -
Do, 19.04. 20:00 -
Ortszeit Schneehöhe (cm)
Sa, 21.04. 19:00 -
Sa, 21.04. 18:50 -
Sa, 21.04. 18:40 -
Sa, 21.04. 18:30 -
Sa, 21.04. 18:20 -
Sa, 21.04. 18:10 -
Sa, 21.04. 18:00 -
Sa, 21.04. 17:30 -
Sa, 21.04. 17:00 -
Sa, 21.04. 16:30 -
Sa, 21.04. 16:00 -
Link zu dieser Seite / Seite empfehlen

Das Wetter in ...